Time;durP1;ratioP1;P1;durP2;ratioP2;P2;SDS_P1;SDS_P2;PMS_P1;PMS_P2;Temp;Humidity;BMP_temperature;BMP_pressure;BME280_temperature;BME280_humidity;BME280_pressure;Samples;Min_cycle;Max_cycle;Signal;HPM_P1;HPM_P2
2023/04/12 00:00:59;;;;;;;;;;;;;;;14.07;nan;101250.56;5028736;28;20304;-83
2023/04/12 00:03:25;;;;;;;;;;;;;;;14.05;nan;101249.19;5028784;28;19917;-84
2023/04/12 00:05:53;;;;;;;;;;;;;;;14.04;nan;101251.09;5027628;28;19917;-84
2023/04/12 00:08:23;;;;;;;;;;;;;;;14.03;nan;101243.25;5023187;28;19917;-84
2023/04/12 00:10:48;;;;;;;;;;;;;;;14.03;nan;101233.28;5022923;28;19971;-84
2023/04/12 00:13:14;;;;;;;;;;;;;;;14.05;nan;101233.84;5024246;28;19956;-84
2023/04/12 00:15:39;;;;;;;;;;;;;;;14.07;nan;101239.78;5027281;28;20450;-84
2023/04/12 00:18:05;;;;;;;;;;;;;;;14.09;nan;101237.63;5020659;28;20635;-84
2023/04/12 00:20:30;;;;;;;;;;;;;;;14.10;nan;101238.44;5026681;28;19936;-84
2023/04/12 00:22:56;;;;;;;;;;;;;;;14.10;nan;101233.88;5024162;28;20302;-84
2023/04/12 00:25:21;;;;;;;;;;;;;;;14.07;nan;101231.69;5025543;28;19939;-84
2023/04/12 00:27:47;;;;;;;;;;;;;;;14.04;nan;101231.41;5019184;28;20462;-84
2023/04/12 00:30:12;;;;;;;;;;;;;;;14.03;nan;101221.72;5026209;28;20133;-84
2023/04/12 00:32:37;;;;;;;;;;;;;;;13.99;nan;101225.97;5024559;28;19982;-84
2023/04/12 00:35:03;;;;;;;;;;;;;;;13.99;nan;101231.34;5025401;28;20008;-84
2023/04/12 00:37:29;;;;;;;;;;;;;;;13.99;nan;101226.78;5024350;28;19923;-84
2023/04/12 00:39:54;;;;;;;;;;;;;;;13.96;nan;101221.09;5026514;28;19924;-84
2023/04/12 00:42:20;;;;;;;;;;;;;;;13.94;nan;101215.16;5024244;28;19917;-84
2023/04/12 00:44:45;;;;;;;;;;;;;;;13.93;nan;101210.84;5026535;28;20438;-84
2023/04/12 00:47:10;;;;;;;;;;;;;;;13.90;nan;101206.78;5023492;28;19917;-84
2023/04/12 00:49:36;;;;;;;;;;;;;;;13.84;nan;101203.25;5027848;28;19971;-84
2023/04/12 00:52:06;;;;;;;;;;;;;;;13.78;nan;101209.66;5023020;28;20414;-84
2023/04/12 00:54:32;;;;;;;;;;;;;;;13.75;nan;101217.44;5019926;28;19930;-84
2023/04/12 00:56:58;;;;;;;;;;;;;;;13.73;nan;101214.22;5024422;28;19960;-84
2023/04/12 00:59:24;;;;;;;;;;;;;;;13.72;nan;101212.59;5023005;28;19948;-84
2023/04/12 01:01:49;;;;;;;;;;;;;;;13.68;nan;101208.78;5022712;28;19956;-84
2023/04/12 01:04:15;;;;;;;;;;;;;;;13.65;nan;101207.44;5007093;28;19917;-84
2023/04/12 01:06:40;;;;;;;;;;;;;;;13.64;nan;101204.97;5023629;28;19936;-84
2023/04/12 01:09:15;;;;;;;;;;;;;;;13.63;nan;101200.66;5023398;28;19932;-84
2023/04/12 01:11:55;;;;;;;;;;;;;;;13.55;nan;101191.19;5024639;28;19926;-84
2023/04/12 01:14:32;;;;;;;;;;;;;;;13.50;nan;101186.56;5021719;28;19943;-84
2023/04/12 01:17:02;;;;;;;;;;;;;;;13.47;nan;101197.84;5017561;28;19972;-84
2023/04/12 01:19:28;;;;;;;;;;;;;;;13.45;nan;101194.56;5022643;28;19920;-84
2023/04/12 01:22:17;;;;;;;;;;;;;;;13.45;nan;101189.19;5023364;28;19924;-84
2023/04/12 01:24:54;;;;;;;;;;;;;;;13.39;nan;101192.91;5026613;28;19921;-84
2023/04/12 01:27:34;;;;;;;;;;;;;;;13.37;nan;101191.56;5023770;28;19917;-84
2023/04/12 01:30:00;;;;;;;;;;;;;;;13.34;nan;101190.19;5026293;28;20156;-83
2023/04/12 01:32:26;;;;;;;;;;;;;;;13.30;nan;101194.47;5022623;28;19925;-84
2023/04/12 01:34:52;;;;;;;;;;;;;;;13.22;nan;101187.66;5024338;28;19925;-83
2023/04/12 01:37:19;;;;;;;;;;;;;;;13.15;nan;101191.59;5022910;28;19917;-84
2023/04/12 01:39:45;;;;;;;;;;;;;;;13.09;nan;101187.22;5005728;28;19923;-83
2023/04/12 01:42:10;;;;;;;;;;;;;;;13.07;nan;101189.34;5019598;28;19921;-84
2023/04/12 01:44:36;;;;;;;;;;;;;;;13.08;nan;101177.53;5027078;28;20427;-83
2023/04/12 01:47:02;;;;;;;;;;;;;;;13.05;nan;101169.97;5023363;28;19917;-83
2023/04/12 01:49:31;;;;;;;;;;;;;;;13.01;nan;101173.16;5023971;28;20290;-83
2023/04/12 01:52:02;;;;;;;;;;;;;;;12.97;nan;101172.06;5020710;28;20016;-83
2023/04/12 01:54:29;;;;;;;;;;;;;;;12.92;nan;101163.09;5023580;28;19980;-84
2023/04/12 01:57:00;;;;;;;;;;;;;;;12.89;nan;101169.78;5022066;28;19917;-83
2023/04/12 01:59:27;;;;;;;;;;;;;;;12.84;nan;101169.75;5024312;28;19953;-83
2023/04/12 02:01:52;;;;;;;;;;;;;;;12.79;nan;101163.50;5020639;28;19923;-84
2023/04/12 02:04:18;;;;;;;;;;;;;;;12.75;nan;101155.16;5024347;28;20273;-83
2023/04/12 02:06:45;;;;;;;;;;;;;;;12.72;nan;101152.94;5020232;28;20363;-83
2023/04/12 02:09:10;;;;;;;;;;;;;;;12.64;nan;101150.72;5025237;28;20461;-83
2023/04/12 02:11:36;;;;;;;;;;;;;;;12.55;nan;101141.44;5028375;28;19924;-83
2023/04/12 02:14:01;;;;;;;;;;;;;;;12.49;nan;101139.78;5027098;28;19963;-83
2023/04/12 02:16:28;;;;;;;;;;;;;;;12.43;nan;101135.41;5025458;28;20354;-83
2023/04/12 02:18:54;;;;;;;;;;;;;;;12.35;nan;101128.59;5025112;28;20398;-84
2023/04/12 02:21:20;;;;;;;;;;;;;;;12.33;nan;101134.22;5027357;28;19917;-83
2023/04/12 02:23:45;;;;;;;;;;;;;;;12.25;nan;101131.16;5032932;28;19916;-83
2023/04/12 02:26:11;;;;;;;;;;;;;;;12.16;nan;101128.09;5024751;28;20350;-83
2023/04/12 02:28:37;;;;;;;;;;;;;;;12.08;nan;101126.66;5024628;28;19923;-83
2023/04/12 02:31:03;;;;;;;;;;;;;;;12.01;nan;101126.00;5022634;28;19971;-83
2023/04/12 02:33:29;;;;;;;;;;;;;;;11.98;nan;101131.06;5025335;28;19952;-83
2023/04/12 02:35:56;;;;;;;;;;;;;;;11.96;nan;101130.50;5026802;28;19971;-84
2023/04/12 02:38:21;;;;;;;;;;;;;;;11.93;nan;101125.63;5025987;28;19924;-83
2023/04/12 02:40:46;;;;;;;;;;;;;;;11.88;nan;101126.38;5029766;28;19929;-83
2023/04/12 02:43:12;;;;;;;;;;;;;;;11.83;nan;101120.91;5026756;28;19967;-83
2023/04/12 02:45:37;;;;;;;;;;;;;;;11.76;nan;101123.75;5029930;28;19921;-83
2023/04/12 02:48:04;;;;;;;;;;;;;;;11.68;nan;101128.75;5025685;28;19917;-83
2023/04/12 02:50:29;;;;;;;;;;;;;;;11.58;nan;101134.75;5025736;28;19925;-83
2023/04/12 02:52:55;;;;;;;;;;;;;;;11.54;nan;101122.09;5023564;28;19917;-83
2023/04/12 02:55:20;;;;;;;;;;;;;;;11.52;nan;101116.97;5017955;28;20027;-83
2023/04/12 02:57:47;;;;;;;;;;;;;;;11.50;nan;101116.41;5023233;28;19932;-83
2023/04/12 03:00:14;;;;;;;;;;;;;;;11.49;nan;101118.28;5027613;28;20110;-83
2023/04/12 03:02:39;;;;;;;;;;;;;;;11.47;nan;101119.53;5029739;28;19953;-83
2023/04/12 03:05:06;;;;;;;;;;;;;;;11.41;nan;101115.16;5028274;28;19968;-83
2023/04/12 03:07:32;;;;;;;;;;;;;;;11.37;nan;101124.78;5006777;28;20582;-84
2023/04/12 03:09:57;;;;;;;;;;;;;;;11.33;nan;101118.28;5028357;28;19921;-83
2023/04/12 03:12:23;;;;;;;;;;;;;;;11.31;nan;101115.00;5025311;28;20056;-83
2023/04/12 03:14:48;;;;;;;;;;;;;;;11.29;nan;101112.56;5028530;28;19925;-83
2023/04/12 03:17:14;;;;;;;;;;;;;;;11.26;nan;101113.06;5024438;28;20301;-83
2023/04/12 03:19:39;;;;;;;;;;;;;;;11.20;nan;101106.81;5026507;28;20246;-83
2023/04/12 03:22:05;;;;;;;;;;;;;;;11.16;nan;101103.00;5026276;28;19967;-83
2023/04/12 03:24:33;;;;;;;;;;;;;;;11.15;nan;101095.19;5020862;28;19975;-83
2023/04/12 03:27:02;;;;;;;;;;;;;;;11.13;nan;101094.59;5022116;28;20312;-84
2023/04/12 03:29:28;;;;;;;;;;;;;;;11.08;nan;101091.84;5020354;28;19957;-83
2023/04/12 03:31:53;;;;;;;;;;;;;;;11.04;nan;101093.38;5024532;28;19956;-83
2023/04/12 03:34:18;;;;;;;;;;;;;;;10.99;nan;101088.75;5024953;28;19925;-83
2023/04/12 03:36:44;;;;;;;;;;;;;;;10.94;nan;101094.00;5029222;28;19928;-83
2023/04/12 03:39:10;;;;;;;;;;;;;;;10.89;nan;101091.25;5026970;28;19928;-84
2023/04/12 03:41:35;;;;;;;;;;;;;;;10.84;nan;101099.19;5015468;28;19928;-83
2023/04/12 03:44:00;;;;;;;;;;;;;;;10.81;nan;101099.69;5025355;28;19924;-83
2023/04/12 03:46:26;;;;;;;;;;;;;;;10.77;nan;101103.88;5026004;28;19975;-83
2023/04/12 03:48:51;;;;;;;;;;;;;;;10.75;nan;101097.94;5025587;28;19917;-83
2023/04/12 03:51:16;;;;;;;;;;;;;;;10.73;nan;101087.47;5025245;28;19921;-82
2023/04/12 03:53:42;;;;;;;;;;;;;;;10.71;nan;101088.78;5024047;28;19925;-83
2023/04/12 03:56:07;;;;;;;;;;;;;;;10.69;nan;101088.19;5024449;28;19932;-83
2023/04/12 03:58:33;;;;;;;;;;;;;;;10.68;nan;101089.25;5021436;28;20328;-82
2023/04/12 04:01:00;;;;;;;;;;;;;;;10.66;nan;101081.47;5026318;28;19917;-83
2023/04/12 04:03:28;;;;;;;;;;;;;;;10.67;nan;101076.91;5024537;28;20477;-83
2023/04/12 04:05:54;;;;;;;;;;;;;;;10.66;nan;101072.59;5022097;28;19924;-83
2023/04/12 04:08:19;;;;;;;;;;;;;;;10.64;nan;101066.69;5024123;28;19917;-83
2023/04/12 04:10:45;;;;;;;;;;;;;;;10.61;nan;101067.16;5026685;28;19919;-83
2023/04/12 04:13:10;;;;;;;;;;;;;;;10.57;nan;101072.97;5024558;28;19925;-82
2023/04/12 04:15:35;;;;;;;;;;;;;;;10.58;nan;101081.81;5019262;28;20289;-82
2023/04/12 04:18:01;;;;;;;;;;;;;;;10.56;nan;101081.25;5023989;28;20390;-83
2023/04/12 04:20:26;;;;;;;;;;;;;;;10.53;nan;101079.88;5023444;28;19943;-82
2023/04/12 04:22:52;;;;;;;;;;;;;;;10.49;nan;101069.88;5034191;28;20320;-82
2023/04/12 04:25:18;;;;;;;;;;;;;;;10.46;nan;101065.81;5028586;28;20383;-82
2023/04/12 04:27:44;;;;;;;;;;;;;;;10.43;nan;101065.50;5035300;28;19921;-82
2023/04/12 04:30:10;;;;;;;;;;;;;;;10.41;nan;101063.06;5025788;28;19924;-82
2023/04/12 04:32:36;;;;;;;;;;;;;;;10.41;nan;101063.06;5026324;28;19917;-82
2023/04/12 04:35:02;;;;;;;;;;;;;;;10.38;nan;101052.78;5028835;28;20370;-82
2023/04/12 04:37:29;;;;;;;;;;;;;;;10.39;nan;101064.31;5029376;28;19921;-82
2023/04/12 04:39:55;;;;;;;;;;;;;;;10.37;nan;101056.53;5030265;28;19917;-82
2023/04/12 04:42:20;;;;;;;;;;;;;;;10.39;nan;101065.13;5033906;28;20275;-82
2023/04/12 04:44:47;;;;;;;;;;;;;;;10.40;nan;101056.03;5032666;28;20390;-82
2023/04/12 04:47:12;;;;;;;;;;;;;;;10.41;nan;101057.69;5028978;28;19924;-83
2023/04/12 04:49:37;;;;;;;;;;;;;;;10.43;nan;101055.59;5028818;28;19921;-82
2023/04/12 04:52:03;;;;;;;;;;;;;;;10.44;nan;101053.72;5027399;28;19917;-82
2023/04/12 04:54:29;;;;;;;;;;;;;;;10.46;nan;101057.78;5036866;28;19921;-82
2023/04/12 04:56:56;;;;;;;;;;;;;;;10.48;nan;101055.69;5030936;28;20378;-82
2023/04/12 04:59:22;;;;;;;;;;;;;;;10.50;nan;101061.59;5035630;28;19923;-82
2023/04/12 05:01:48;;;;;;;;;;;;;;;10.54;nan;101051.22;5030995;28;19921;-82
2023/04/12 05:04:13;;;;;;;;;;;;;;;10.55;nan;101056.34;5028295;28;19917;-82
2023/04/12 05:06:38;;;;;;;;;;;;;;;10.58;nan;101055.84;5028290;28;19917;-82
2023/04/12 05:09:04;;;;;;;;;;;;;;;10.63;nan;101051.66;5016864;28;19921;-83
2023/04/12 05:11:29;;;;;;;;;;;;;;;10.64;nan;101054.09;5012906;28;20279;-82
2023/04/12 05:13:55;;;;;;;;;;;;;;;10.68;nan;101046.38;5028225;28;20434;-83
2023/04/12 05:16:20;;;;;;;;;;;;;;;10.73;nan;101046.47;5040297;28;19999;-84
2023/04/12 05:18:45;;;;;;;;;;;;;;;10.79;nan;101040.16;5027453;28;19920;-83
2023/04/12 05:21:11;;;;;;;;;;;;;;;10.84;nan;101042.91;5033691;28;19924;-83
2023/04/12 05:23:40;;;;;;;;;;;;;;;10.86;nan;101044.28;5031196;28;19943;-83
2023/04/12 05:26:06;;;;;;;;;;;;;;;10.92;nan;101053.22;5026780;28;20375;-83
2023/04/12 05:28:31;;;;;;;;;;;;;;;10.99;nan;101053.91;5030713;28;19916;-83
2023/04/12 05:30:57;;;;;;;;;;;;;;;11.04;nan;101064.69;5029390;28;19921;-83
2023/04/12 05:33:22;;;;;;;;;;;;;;;11.09;nan;101059.41;5030615;28;19943;-83
2023/04/12 05:35:47;;;;;;;;;;;;;;;11.11;nan;101062.66;5026212;28;19917;-83
2023/04/12 05:38:13;;;;;;;;;;;;;;;11.21;nan;101053.97;5029544;28;19929;-83
2023/04/12 05:40:38;;;;;;;;;;;;;;;11.22;nan;101049.41;5028747;28;19917;-83
2023/04/12 05:43:03;;;;;;;;;;;;;;;11.26;nan;101046.00;5030310;28;20034;-83
2023/04/12 05:45:29;;;;;;;;;;;;;;;11.34;nan;101052.84;5029916;28;19917;-84
2023/04/12 05:47:54;;;;;;;;;;;;;;;11.40;nan;101049.97;5029617;28;19920;-83
2023/04/12 05:50:20;;;;;;;;;;;;;;;11.50;nan;101041.28;5032273;28;20374;-83
2023/04/12 05:52:47;;;;;;;;;;;;;;;11.56;nan;101042.97;5026863;28;19924;-83
2023/04/12 05:55:13;;;;;;;;;;;;;;;11.64;nan;101047.88;5028592;28;19921;-83
2023/04/12 05:57:39;;;;;;;;;;;;;;;11.74;nan;101039.16;5032599;28;19921;-83
2023/04/12 06:00:09;;;;;;;;;;;;;;;11.83;nan;101037.69;5032668;28;21651;-83
2023/04/12 06:02:34;;;;;;;;;;;;;;;11.88;nan;101028.91;5024549;28;20355;-83
2023/04/12 06:05:00;;;;;;;;;;;;;;;11.99;nan;101026.09;5029534;28;20032;-84
2023/04/12 06:07:26;;;;;;;;;;;;;;;12.09;nan;101025.41;5028211;28;19921;-83
2023/04/12 06:09:51;;;;;;;;;;;;;;;12.14;nan;101025.47;5031317;28;19920;-83
2023/04/12 06:12:17;;;;;;;;;;;;;;;12.23;nan;101021.28;5012185;28;20378;-83
2023/04/12 06:14:42;;;;;;;;;;;;;;;12.30;nan;101019.19;5034920;28;19943;-83
2023/04/12 06:17:08;;;;;;;;;;;;;;;12.32;nan;101013.56;5028696;28;19931;-84
2023/04/12 06:19:33;;;;;;;;;;;;;;;12.31;nan;101020.00;5027540;28;19921;-83
2023/04/12 06:21:58;;;;;;;;;;;;;;;12.37;nan;101011.72;5012984;28;20020;-83
2023/04/12 06:24:24;;;;;;;;;;;;;;;12.45;nan;101012.34;5029841;28;19927;-83
2023/04/12 06:26:49;;;;;;;;;;;;;;;12.51;nan;101008.66;5031245;28;20296;-83
2023/04/12 06:29:16;;;;;;;;;;;;;;;12.61;nan;101008.75;5025800;28;19917;-82
2023/04/12 06:31:41;;;;;;;;;;;;;;;12.68;nan;101009.34;5035343;28;19929;-83
2023/04/12 06:34:06;;;;;;;;;;;;;;;12.74;nan;101002.94;5028968;28;19929;-84
2023/04/12 06:36:32;;;;;;;;;;;;;;;12.75;nan;100999.22;5029131;28;20012;-84
2023/04/12 06:38:57;;;;;;;;;;;;;;;12.79;nan;100994.13;5029996;28;19925;-83
2023/04/12 06:41:23;;;;;;;;;;;;;;;12.90;nan;100993.94;5024620;28;19916;-83
2023/04/12 06:43:48;;;;;;;;;;;;;;;13.02;nan;100988.38;5036706;28;20004;-83
2023/04/12 06:46:14;;;;;;;;;;;;;;;13.09;nan;100985.44;5027358;28;19945;-83
2023/04/12 06:48:40;;;;;;;;;;;;;;;13.22;nan;100983.16;5035510;28;19932;-82
2023/04/12 06:51:06;;;;;;;;;;;;;;;13.30;nan;100989.94;5023987;28;20291;-83
2023/04/12 06:53:33;;;;;;;;;;;;;;;13.41;nan;100986.22;5033589;28;19921;-83
2023/04/12 06:56:02;;;;;;;;;;;;;;;13.55;nan;100978.50;5035663;28;19921;-83
2023/04/12 06:58:29;;;;;;;;;;;;;;;13.66;nan;100980.19;5029171;28;19932;-83
2023/04/12 07:01:02;;;;;;;;;;;;;;;13.72;nan;100978.31;5029866;28;20624;-83
2023/04/12 07:03:30;;;;;;;;;;;;;;;13.78;nan;100977.25;5032560;28;20373;-84
2023/04/12 07:05:55;;;;;;;;;;;;;;;13.74;nan;100971.59;5033604;28;19944;-83
2023/04/12 07:08:21;;;;;;;;;;;;;;;13.78;nan;100971.88;5030132;28;20411;-83
2023/04/12 07:10:52;;;;;;;;;;;;;;;13.95;nan;100966.25;5037957;28;20298;-83
2023/04/12 07:13:17;;;;;;;;;;;;;;;14.06;nan;100963.34;5033384;28;20393;-83
2023/04/12 07:15:43;;;;;;;;;;;;;;;14.16;nan;100960.66;5028623;28;19921;-83
2023/04/12 07:18:08;;;;;;;;;;;;;;;14.29;nan;100953.94;5035518;28;19925;-83
2023/04/12 07:20:33;;;;;;;;;;;;;;;14.38;nan;100955.06;5033861;28;20670;-83
2023/04/12 07:22:59;;;;;;;;;;;;;;;14.48;nan;100955.06;5025248;28;19923;-83
2023/04/12 07:25:24;;;;;;;;;;;;;;;14.65;nan;100952.13;5034082;28;20017;-83
2023/04/12 07:27:49;;;;;;;;;;;;;;;14.77;nan;100952.66;5026399;28;19953;-83
2023/04/12 07:30:15;;;;;;;;;;;;;;;14.89;nan;100938.06;5028468;28;19917;-83
2023/04/12 07:32:40;;;;;;;;;;;;;;;15.02;nan;100946.41;5010170;28;20436;-83
2023/04/12 07:35:06;;;;;;;;;;;;;;;15.17;nan;100950.16;5033186;28;20005;-85
2023/04/12 07:37:31;;;;;;;;;;;;;;;15.37;nan;100942.81;5030968;28;20004;-83
2023/04/12 07:39:57;;;;;;;;;;;;;;;15.53;nan;100950.88;5030627;28;20405;-83
2023/04/12 07:42:22;;;;;;;;;;;;;;;15.60;nan;100935.19;5030971;28;20575;-83
2023/04/12 07:44:48;;;;;;;;;;;;;;;15.64;nan;100936.28;5024629;28;19924;-83
2023/04/12 07:47:13;;;;;;;;;;;;;;;15.73;nan;100941.91;5028973;28;20039;-83
2023/04/12 07:49:38;;;;;;;;;;;;;;;15.72;nan;100933.00;5025856;28;19917;-84
2023/04/12 07:52:04;;;;;;;;;;;;;;;15.67;nan;100930.31;5026034;28;19927;-84
2023/04/12 07:54:29;;;;;;;;;;;;;;;15.75;nan;100935.13;5032332;28;19943;-84
2023/04/12 07:56:59;;;;;;;;;;;;;;;15.85;nan;100932.41;5012307;28;19917;-85
2023/04/12 07:59:24;;;;;;;;;;;;;;;15.91;nan;100930.47;5027402;28;19974;-83
2023/04/12 08:01:50;;;;;;;;;;;;;;;16.04;nan;100927.16;5028651;28;19917;-84
2023/04/12 08:04:15;;;;;;;;;;;;;;;16.14;nan;100926.25;5022709;28;19943;-84
2023/04/12 08:06:41;;;;;;;;;;;;;;;16.24;nan;100923.50;5031794;28;19925;-83
2023/04/12 08:09:06;;;;;;;;;;;;;;;16.28;nan;100917.25;5028331;28;20453;-84
2023/04/12 08:11:34;;;;;;;;;;;;;;;16.46;nan;100923.88;5010954;28;20382;-83
2023/04/12 08:13:59;;;;;;;;;;;;;;;16.50;nan;100922.22;5027455;28;19931;-82
2023/04/12 08:16:25;;;;;;;;;;;;;;;16.63;nan;100921.56;5034125;28;19917;-83
2023/04/12 08:18:50;;;;;;;;;;;;;;;16.62;nan;100922.66;5020397;28;19921;-83
2023/04/12 08:21:15;;;;;;;;;;;;;;;16.67;nan;100912.91;5028465;28;19960;-83
2023/04/12 08:23:41;;;;;;;;;;;;;;;16.76;nan;100913.91;5031048;28;19975;-84
2023/04/12 08:26:06;;;;;;;;;;;;;;;16.88;nan;100908.94;5031089;28;19925;-83
2023/04/12 08:28:32;;;;;;;;;;;;;;;17.02;nan;100906.34;5030238;28;20405;-83
2023/04/12 08:30:58;;;;;;;;;;;;;;;17.09;nan;100907.63;5029405;28;19921;-83
2023/04/12 08:33:23;;;;;;;;;;;;;;;17.14;nan;100902.16;5035653;28;20009;-84
2023/04/12 08:35:49;;;;;;;;;;;;;;;17.18;nan;100903.19;5028987;28;19924;-84
2023/04/12 08:38:14;;;;;;;;;;;;;;;17.25;nan;100894.72;5031836;28;19975;-83
2023/04/12 08:40:41;;;;;;;;;;;;;;;17.34;nan;100889.47;5029890;28;20314;-82
2023/04/12 08:43:08;;;;;;;;;;;;;;;17.49;nan;100890.09;5036718;28;20000;-83
2023/04/12 08:45:34;;;;;;;;;;;;;;;17.57;nan;100883.19;5029759;28;20374;-82
2023/04/12 08:48:02;;;;;;;;;;;;;;;17.74;nan;100891.66;5029789;28;19921;-83
2023/04/12 08:50:28;;;;;;;;;;;;;;;17.77;nan;100876.72;5035053;28;20038;-83
2023/04/12 08:52:54;;;;;;;;;;;;;;;17.80;nan;100874.25;5027515;28;20012;-83
2023/04/12 08:55:20;;;;;;;;;;;;;;;17.89;nan;100871.69;5026698;28;19921;-82
2023/04/12 08:57:46;;;;;;;;;;;;;;;17.93;nan;100877.31;5029410;28;20301;-83
2023/04/12 09:00:13;;;;;;;;;;;;;;;17.99;nan;100854.47;5023485;28;19921;-82
2023/04/12 09:02:41;;;;;;;;;;;;;;;18.12;nan;100859.91;5028690;28;19924;-82
2023/04/12 09:05:08;;;;;;;;;;;;;;;18.26;nan;100854.56;5024927;28;19928;-83
2023/04/12 09:07:34;;;;;;;;;;;;;;;18.45;nan;100845.56;5030898;28;19924;-83
2023/04/12 09:10:00;;;;;;;;;;;;;;;18.64;nan;100840.91;5031905;28;19928;-83
2023/04/12 09:12:26;;;;;;;;;;;;;;;18.74;nan;100837.22;5028364;28;19925;-83
2023/04/12 09:15:12;;;;;;;;;;;;;;;18.73;nan;100830.97;5023901;28;19932;-83
2023/04/12 09:17:37;;;;;;;;;;;;;;;18.86;nan;100832.91;5023719;28;19924;-83
2023/04/12 09:20:24;;;;;;;;;;;;;;;19.00;nan;100822.81;5030873;28;19917;-83
2023/04/12 09:22:51;;;;;;;;;;;;;;;19.12;nan;100818.81;5027522;28;19924;-82
2023/04/12 09:25:17;;;;;;;;;;;;;;;19.30;nan;100817.88;5029848;28;19921;-82
2023/04/12 09:27:49;;;;;;;;;;;;;;;19.40;nan;100803.28;5026660;28;19928;-83
2023/04/12 09:30:15;;;;;;;;;;;;;;;19.48;nan;100795.19;5029267;28;19923;-83
2023/04/12 09:32:41;;;;;;;;;;;;;;;19.55;nan;100798.31;5026704;28;20005;-83
2023/04/12 09:35:07;;;;;;;;;;;;;;;19.63;nan;100794.06;5041818;28;20410;-83
2023/04/12 09:37:32;;;;;;;;;;;;;;;19.67;nan;100791.53;5022465;28;20501;-83
2023/04/12 09:40:00;;;;;;;;;;;;;;;19.81;nan;100770.53;5040894;28;19964;-83
2023/04/12 09:42:27;;;;;;;;;;;;;;;19.97;nan;100779.94;5029311;28;19924;-83
2023/04/12 09:44:53;;;;;;;;;;;;;;;20.07;nan;100768.78;5038587;28;20329;-83
2023/04/12 09:47:18;;;;;;;;;;;;;;;20.15;nan;100768.06;5035605;28;19920;-83
2023/04/12 09:49:44;;;;;;;;;;;;;;;20.22;nan;100757.53;5028110;28;19916;-83
2023/04/12 09:52:12;;;;;;;;;;;;;;;20.28;nan;100751.94;5031489;28;19924;-83
2023/04/12 09:54:41;;;;;;;;;;;;;;;20.38;nan;100746.22;5031220;28;19928;-83
2023/04/12 09:57:07;;;;;;;;;;;;;;;20.49;nan;100744.88;5011084;28;19921;-84
2023/04/12 09:59:34;;;;;;;;;;;;;;;20.48;nan;100746.00;5030147;28;19918;-82
2023/04/12 10:02:01;;;;;;;;;;;;;;;20.49;nan;100739.44;5031976;28;19940;-83
2023/04/12 10:04:28;;;;;;;;;;;;;;;20.50;nan;100724.72;5033845;28;19944;-83
2023/04/12 10:06:54;;;;;;;;;;;;;;;20.58;nan;100732.09;5031658;28;20275;-82
2023/04/12 10:09:19;;;;;;;;;;;;;;;20.62;nan;100727.63;5028917;28;20047;-83
2023/04/12 10:11:45;;;;;;;;;;;;;;;20.59;nan;100722.81;5034988;28;19913;-83
2023/04/12 10:14:11;;;;;;;;;;;;;;;20.63;nan;100712.88;5018604;28;20264;-82
2023/04/12 10:16:39;;;;;;;;;;;;;;;20.60;nan;100710.00;5029464;28;19924;-83
2023/04/12 10:19:05;;;;;;;;;;;;;;;20.64;nan;100705.50;5007252;28;19917;-82
2023/04/12 10:21:30;;;;;;;;;;;;;;;20.73;nan;100704.44;5020142;28;20505;-82
2023/04/12 10:23:56;;;;;;;;;;;;;;;20.73;nan;100698.19;5007674;28;19924;-82
2023/04/12 10:26:22;;;;;;;;;;;;;;;20.71;nan;100694.97;5030275;28;20415;-82
2023/04/12 10:29:07;;;;;;;;;;;;;;;20.82;nan;100690.81;5012920;28;20620;-83
2023/04/12 10:31:32;;;;;;;;;;;;;;;20.76;nan;100692.09;5007642;28;19917;-83
2023/04/12 10:34:00;;;;;;;;;;;;;;;20.96;nan;100685.25;5037525;28;19929;-82
2023/04/12 10:36:44;;;;;;;;;;;;;;;20.93;nan;100675.00;5030636;28;19932;-82
2023/04/12 10:39:10;;;;;;;;;;;;;;;20.97;nan;100667.78;5031114;28;19927;-82
2023/04/12 10:41:36;;;;;;;;;;;;;;;20.99;nan;100670.97;5029410;28;19924;-83
2023/04/12 10:44:27;;;;;;;;;;;;;;;21.11;nan;100671.16;5031158;28;19996;-82
2023/04/12 10:46:53;;;;;;;;;;;;;;;21.18;nan;100667.94;5024986;28;19921;-82
2023/04/12 10:49:19;;;;;;;;;;;;;;;21.08;nan;100669.88;5031273;28;19916;-82
2023/04/12 10:52:05;;;;;;;;;;;;;;;21.03;nan;100670.03;5036314;28;19921;-83
2023/04/12 10:54:34;;;;;;;;;;;;;;;21.06;nan;100668.59;5017772;28;19925;-82
2023/04/12 10:57:00;;;;;;;;;;;;;;;21.14;nan;100659.63;5031075;28;19924;-82
2023/04/12 10:59:45;;;;;;;;;;;;;;;21.23;nan;100652.25;5017299;28;19921;-81
2023/04/12 11:02:12;;;;;;;;;;;;;;;21.36;nan;100655.94;5014239;28;19924;-84
2023/04/12 11:04:37;;;;;;;;;;;;;;;21.45;nan;100656.75;5036641;28;19917;-84
2023/04/12 11:07:06;;;;;;;;;;;;;;;21.55;nan;100647.44;5030397;28;20458;-84
2023/04/12 11:09:31;;;;;;;;;;;;;;;21.56;nan;100638.13;5030294;28;20541;-84
2023/04/12 11:12:03;;;;;;;;;;;;;;;21.60;nan;100633.63;5035641;28;19948;-84
2023/04/12 11:14:33;;;;;;;;;;;;;;;21.57;nan;100623.38;5038156;28;19931;-84
2023/04/12 11:17:05;;;;;;;;;;;;;;;21.62;nan;100615.81;5035730;28;19923;-84
2023/04/12 11:19:37;;;;;;;;;;;;;;;21.85;nan;100616.38;5027342;28;20628;-85
2023/04/12 11:22:03;;;;;;;;;;;;;;;21.96;nan;100612.16;5023783;28;19917;-84
2023/04/12 11:24:28;;;;;;;;;;;;;;;22.08;nan;100608.75;5029401;28;19997;-84
2023/04/12 11:26:55;;;;;;;;;;;;;;;22.12;nan;100595.28;5028932;28;19917;-85
2023/04/12 11:29:23;;;;;;;;;;;;;;;22.12;nan;100596.06;5030921;28;19917;-84
2023/04/12 11:31:49;;;;;;;;;;;;;;;22.30;nan;100596.78;5028950;28;19917;-84
2023/04/12 11:34:18;;;;;;;;;;;;;;;22.45;nan;100593.47;5030786;28;19929;-84
2023/04/12 11:36:53;;;;;;;;;;;;;;;22.52;nan;100588.28;5032927;28;19924;-84
2023/04/12 11:39:20;;;;;;;;;;;;;;;22.50;nan;100590.53;5033976;28;19917;-84
2023/04/12 11:41:48;;;;;;;;;;;;;;;22.48;nan;100581.88;5028321;28;20059;-82
2023/04/12 11:44:17;;;;;;;;;;;;;;;22.59;nan;100574.88;5029650;28;20075;-82
2023/04/12 11:46:43;;;;;;;;;;;;;;;22.82;nan;100564.47;5031166;28;19939;-84
2023/04/12 11:49:08;;;;;;;;;;;;;;;22.89;nan;100563.91;5011636;28;20399;-84
2023/04/12 11:51:34;;;;;;;;;;;;;;;23.02;nan;100562.84;5031413;28;19921;-84
2023/04/12 11:54:00;;;;;;;;;;;;;;;23.17;nan;100555.94;5033215;28;19917;-83
2023/04/12 11:56:26;;;;;;;;;;;;;;;23.23;nan;100551.88;5028524;28;19921;-83
2023/04/12 11:58:51;;;;;;;;;;;;;;;23.25;nan;100548.78;5025632;28;19921;-84
2023/04/12 12:01:18;;;;;;;;;;;;;;;23.11;nan;100547.16;5030122;28;20279;-83
2023/04/12 12:03:44;;;;;;;;;;;;;;;22.96;nan;100539.56;5034503;28;20302;-83
2023/04/12 12:06:10;;;;;;;;;;;;;;;22.96;nan;100547.78;5036804;28;19913;-82
2023/04/12 12:08:35;;;;;;;;;;;;;;;23.00;nan;100548.72;5029058;28;19918;-83
2023/04/12 12:11:01;;;;;;;;;;;;;;;22.94;nan;100532.84;5031638;28;19927;-82
2023/04/12 12:13:26;;;;;;;;;;;;;;;23.00;nan;100531.53;5032279;28;19917;-84
2023/04/12 12:15:52;;;;;;;;;;;;;;;23.04;nan;100532.44;5029521;28;19925;-84
2023/04/12 12:18:17;;;;;;;;;;;;;;;23.10;nan;100528.34;5023375;28;19921;-83
2023/04/12 12:20:49;;;;;;;;;;;;;;;23.16;nan;100514.16;5034130;28;19963;-85
2023/04/12 12:23:28;;;;;;;;;;;;;;;23.19;nan;100513.47;5029716;28;19971;-83
2023/04/12 12:25:55;;;;;;;;;;;;;;;23.32;nan;100505.28;5029938;28;19991;-82
2023/04/12 12:28:22;;;;;;;;;;;;;;;23.41;nan;100508.72;5021043;28;19948;-81
2023/04/12 12:30:47;;;;;;;;;;;;;;;23.46;nan;100503.03;5029265;28;19921;-85
2023/04/12 12:33:18;;;;;;;;;;;;;;;23.58;nan;100505.00;5029321;28;20031;-83
2023/04/12 12:35:44;;;;;;;;;;;;;;;23.57;nan;100489.75;5032790;28;20286;-83
2023/04/12 12:38:10;;;;;;;;;;;;;;;23.46;nan;100487.41;5031145;28;20363;-84
2023/04/12 12:40:35;;;;;;;;;;;;;;;23.48;nan;100492.53;5030924;28;20458;-83
2023/04/12 12:43:01;;;;;;;;;;;;;;;23.54;nan;100485.72;5029855;28;19988;-83
2023/04/12 12:45:28;;;;;;;;;;;;;;;23.68;nan;100483.47;5028515;28;19928;-85
2023/04/12 12:48:03;;;;;;;;;;;;;;;23.74;nan;100476.63;5028368;28;19928;-84
2023/04/12 12:50:29;;;;;;;;;;;;;;;23.92;nan;100484.59;5029838;28;19933;-84
2023/04/12 12:52:55;;;;;;;;;;;;;;;23.90;nan;100473.22;5031188;28;20292;-83
2023/04/12 12:55:21;;;;;;;;;;;;;;;23.88;nan;100468.09;5028262;28;19937;-82